Time;durP1;ratioP1;P1;durP2;ratioP2;P2;SDS_P1;SDS_P2;PMS_P1;PMS_P2;Temp;Humidity;BMP_temperature;BMP_pressure;BME280_temperature;BME280_humidity;BME280_pressure;Samples;Min_cycle;Max_cycle;Signal;HPM_P1;HPM_P2
2023/07/11 00:00:57;;;;;;;6.35;5.75;;;;;;;15.47;100.00;101181.88;4883522;29;20535;-82
2023/07/11 00:03:24;;;;;;;7.35;6.47;;;;;;;15.48;100.00;101188.09;4896738;29;20070;-83
2023/07/11 00:06:05;;;;;;;7.03;6.32;;;;;;;15.44;100.00;101175.78;4896033;29;20102;-82
2023/07/11 00:08:33;;;;;;;8.20;6.63;;;;;;;15.41;100.00;101183.88;4905147;29;20036;-82
2023/07/11 00:10:59;;;;;;;6.75;6.15;;;;;;;15.35;100.00;101189.38;4912708;29;20049;-82
2023/07/11 00:13:26;;;;;;;8.27;7.03;;;;;;;15.31;100.00;101182.44;4897994;29;20051;-82
2023/07/11 00:15:58;;;;;;;6.97;6.25;;;;;;;15.25;100.00;101185.28;4899030;29;20048;-81
2023/07/11 00:18:25;;;;;;;7.75;6.45;;;;;;;15.22;100.00;101183.59;4900486;29;20094;-82
2023/07/11 00:20:52;;;;;;;7.20;6.50;;;;;;;15.15;100.00;101188.22;4898838;29;20048;-82
2023/07/11 00:23:19;;;;;;;7.35;6.50;;;;;;;15.14;100.00;101186.50;4900441;29;20072;-82
2023/07/11 00:25:45;;;;;;;6.95;6.25;;;;;;;15.09;100.00;101180.41;4899396;29;20043;-82
2023/07/11 00:28:13;;;;;;;7.60;6.80;;;;;;;15.07;100.00;101178.72;4909108;29;20547;-83
2023/07/11 00:30:41;;;;;;;7.43;6.65;;;;;;;15.02;100.00;101173.53;4904537;29;20140;-83
2023/07/11 00:33:09;;;;;;;6.68;6.07;;;;;;;15.00;100.00;101177.19;4894229;29;20113;-82
2023/07/11 00:35:39;;;;;;;7.45;5.90;;;;;;;14.94;100.00;101183.53;4915664;29;20083;-83
2023/07/11 00:38:06;;;;;;;7.78;6.78;;;;;;;14.92;100.00;101175.63;4882827;29;20135;-83
2023/07/11 00:40:39;;;;;;;7.00;6.30;;;;;;;14.93;100.00;101174.69;4906350;29;20103;-82
2023/07/11 00:43:10;;;;;;;7.63;6.63;;;;;;;14.81;100.00;101175.06;4923073;29;20050;-82
2023/07/11 00:45:48;;;;;;;7.53;6.47;;;;;;;14.82;100.00;101183.94;4916710;29;20032;-83
2023/07/11 00:48:16;;;;;;;8.27;6.70;;;;;;;14.80;100.00;101178.66;4911442;29;20135;-81
2023/07/11 00:50:44;;;;;;;7.35;6.55;;;;;;;14.79;100.00;101187.53;4896592;29;20420;-82
2023/07/11 00:53:12;;;;;;;7.57;6.70;;;;;;;14.74;100.00;101183.28;4908332;29;20062;-82
2023/07/11 00:55:38;;;;;;;8.07;6.63;;;;;;;14.74;100.00;101186.81;4926227;29;20046;-82
2023/07/11 00:58:05;;;;;;;7.72;6.90;;;;;;;14.72;100.00;101186.00;4909862;29;20044;-83
2023/07/11 01:00:33;;;;;;;7.47;6.43;;;;;;;14.69;100.00;101179.88;4921843;29;20796;-82
2023/07/11 01:03:00;;;;;;;8.65;7.45;;;;;;;14.66;100.00;101172.00;4904841;29;20103;-82
2023/07/11 01:05:27;;;;;;;7.25;6.40;;;;;;;14.62;100.00;101176.50;4888052;29;20036;-82
2023/07/11 01:07:54;;;;;;;7.32;6.63;;;;;;;14.60;100.00;101175.69;4909951;29;20422;-82
2023/07/11 01:10:20;;;;;;;8.50;6.63;;;;;;;14.55;100.00;101170.53;4911819;29;20048;-82
2023/07/11 01:12:48;;;;;;;7.82;6.63;;;;;;;14.49;100.00;101169.81;4899981;29;20047;-84
2023/07/11 01:15:15;;;;;;;7.57;6.88;;;;;;;14.46;100.00;101176.09;4906004;29;20044;-82
2023/07/11 01:17:42;;;;;;;7.90;7.13;;;;;;;14.43;100.00;101173.47;4911049;29;20047;-83
2023/07/11 01:20:09;;;;;;;7.65;6.68;;;;;;;14.41;100.00;101171.78;4900378;29;20052;-83
2023/07/11 01:22:37;;;;;;;7.22;6.53;;;;;;;14.46;100.00;101178.75;4896470;29;20145;-81
2023/07/11 01:25:13;;;;;;;7.05;6.35;;;;;;;14.43;100.00;101175.25;4897088;29;20117;-83
2023/07/11 01:27:43;;;;;;;8.45;6.60;;;;;;;14.38;100.00;101167.44;4895045;29;20079;-82
2023/07/11 01:30:15;;;;;;;7.07;6.30;;;;;;;14.31;100.00;101174.69;4911454;29;20044;-82
2023/07/11 01:32:42;;;;;;;7.80;6.93;;;;;;;14.34;100.00;101179.06;4893259;29;20120;-83
2023/07/11 01:35:09;;;;;;;8.18;6.70;;;;;;;14.26;100.00;101168.63;4880344;29;20047;-81
2023/07/11 01:37:36;;;;;;;8.32;6.88;;;;;;;14.25;100.00;101172.19;4909105;29;20051;-81
2023/07/11 01:40:05;;;;;;;7.63;6.82;;;;;;;14.19;100.00;101184.78;4908939;29;20142;-81
2023/07/11 01:42:32;;;;;;;8.50;6.22;;;;;;;14.26;100.00;101173.06;4913292;29;20240;-82
2023/07/11 01:44:59;;;;;;;6.95;6.25;;;;;;;14.17;100.00;101168.00;4904696;29;20063;-82
2023/07/11 01:47:25;;;;;;;8.40;7.10;;;;;;;14.15;100.00;101175.16;4905547;29;20611;-82
2023/07/11 01:49:52;;;;;;;7.90;7.10;;;;;;;14.11;100.00;101168.16;4925136;29;20055;-82
2023/07/11 01:52:21;;;;;;;7.75;6.50;;;;;;;14.04;100.00;101172.78;4933927;29;20097;-81
2023/07/11 01:54:49;;;;;;;7.38;5.78;;;;;;;14.01;100.00;101171.06;4901032;29;20040;-82
2023/07/11 01:57:16;;;;;;;6.88;6.18;;;;;;;14.05;100.00;101177.19;4926437;29;20691;-81
2023/07/11 01:59:42;;;;;;;7.68;6.88;;;;;;;14.03;100.00;101173.69;4907150;29;20788;-81
2023/07/11 02:02:10;;;;;;;6.97;6.28;;;;;;;13.95;100.00;101165.91;4906503;29;20115;-81
2023/07/11 02:04:37;;;;;;;7.60;6.80;;;;;;;13.99;100.00;101175.56;4907289;29;20063;-82
2023/07/11 02:07:05;;;;;;;7.72;6.45;;;;;;;13.95;100.00;101168.56;4914488;29;20048;-82
2023/07/11 02:09:32;;;;;;;7.10;6.40;;;;;;;13.96;100.00;101170.34;4904889;29;20586;-83
2023/07/11 02:11:58;;;;;;;7.03;6.32;;;;;;;13.96;100.00;101161.50;4917834;29;20048;-83
2023/07/11 02:14:25;;;;;;;7.00;6.30;;;;;;;13.87;100.00;101170.56;4904301;29;20056;-82
2023/07/11 02:16:53;;;;;;;6.90;6.20;;;;;;;13.82;100.00;101161.84;4922281;29;20102;-83
2023/07/11 02:19:21;;;;;;;7.18;6.45;;;;;;;13.82;100.00;101166.28;4925804;29;20041;-82
2023/07/11 02:21:48;;;;;;;7.28;6.32;;;;;;;13.79;100.00;101156.63;4922417;29;20455;-83
2023/07/11 02:24:16;;;;;;;7.47;6.65;;;;;;;13.74;100.00;101161.19;4914237;29;20055;-84
2023/07/11 02:26:43;;;;;;;8.13;6.00;;;;;;;13.65;100.00;101158.75;4893107;29;20048;-82
2023/07/11 02:29:10;;;;;;;8.27;6.75;;;;;;;13.61;100.00;101157.94;4902277;29;20741;-85
2023/07/11 02:31:37;;;;;;;7.43;6.72;;;;;;;13.59;100.00;101156.25;4907091;29;20067;-82
2023/07/11 02:34:04;;;;;;;7.88;6.25;;;;;;;13.58;100.00;101144.75;4910276;29;20485;-85
2023/07/11 02:36:31;;;;;;;7.18;6.00;;;;;;;13.48;100.00;101154.72;4912379;29;20044;-83
2023/07/11 02:38:58;;;;;;;7.18;6.45;;;;;;;13.44;100.00;101155.69;4918988;29;20074;-83
2023/07/11 02:41:25;;;;;;;7.28;6.13;;;;;;;13.35;100.00;101152.41;4906786;29;20044;-82
2023/07/11 02:43:52;;;;;;;6.70;6.07;;;;;;;13.35;100.00;101153.28;4903072;29;20107;-82
2023/07/11 02:46:20;;;;;;;7.22;6.07;;;;;;;13.30;100.00;101147.22;4904866;29;20044;-83
2023/07/11 02:48:47;;;;;;;6.78;6.07;;;;;;;13.29;100.00;101148.13;4891573;29;20048;-82
2023/07/11 02:51:14;;;;;;;6.70;6.10;;;;;;;13.32;100.00;101152.50;4909971;29;20073;-84
2023/07/11 02:53:42;;;;;;;7.60;6.75;;;;;;;13.31;100.00;101145.44;4910260;29;20579;-83
2023/07/11 02:56:09;;;;;;;8.27;6.95;;;;;;;13.24;100.00;101140.28;4894191;29;20049;-82
2023/07/11 02:58:35;;;;;;;7.22;5.82;;;;;;;13.19;100.00;101147.44;4896462;29;20044;-83
2023/07/11 03:01:03;;;;;;;7.32;6.07;;;;;;;13.15;100.00;101137.81;4916753;29;20099;-82
2023/07/11 03:03:31;;;;;;;8.15;6.38;;;;;;;13.10;100.00;101147.63;4900527;29;20426;-82
2023/07/11 03:05:58;;;;;;;7.55;6.40;;;;;;;13.10;100.00;101146.78;4914143;29;20041;-83
2023/07/11 03:08:25;;;;;;;7.85;6.28;;;;;;;13.07;100.00;101145.06;4897974;29;20076;-83
2023/07/11 03:10:52;;;;;;;7.10;6.40;;;;;;;13.05;100.00;101146.03;4896787;29;20055;-83
2023/07/11 03:13:19;;;;;;;6.53;5.90;;;;;;;13.04;100.00;101149.59;4897623;29;20610;-83
2023/07/11 03:15:45;;;;;;;6.70;6.00;;;;;;;13.05;100.00;101154.84;4902763;29;20037;-82
2023/07/11 03:18:13;;;;;;;6.68;6.05;;;;;;;13.00;100.00;101154.06;4897601;29;20642;-83
2023/07/11 03:20:41;;;;;;;7.00;6.28;;;;;;;13.01;100.00;101161.13;4895688;29;20043;-82
2023/07/11 03:23:10;;;;;;;7.20;6.50;;;;;;;13.01;100.00;101162.91;4893282;29;20046;-83
2023/07/11 03:25:37;;;;;;;7.85;6.65;;;;;;;13.00;100.00;101159.38;4908806;29;20127;-82
2023/07/11 03:28:04;;;;;;;7.13;6.20;;;;;;;12.99;100.00;101162.06;4922253;29;20550;-84
2023/07/11 03:30:32;;;;;;;7.90;5.93;;;;;;;12.95;100.00;101162.16;4906100;29;20076;-84
2023/07/11 03:32:59;;;;;;;6.30;5.63;;;;;;;12.93;100.00;101161.28;4902776;29;20052;-83
2023/07/11 03:35:25;;;;;;;8.13;6.25;;;;;;;12.98;100.00;101165.63;4908747;29;20534;-82
2023/07/11 03:37:52;;;;;;;5.70;5.10;;;;;;;13.00;100.00;101164.69;4920796;29;20045;-82
2023/07/11 03:40:19;;;;;;;8.13;6.95;;;;;;;13.00;100.00;101166.47;4882163;29;20139;-84
2023/07/11 03:42:45;;;;;;;7.82;6.03;;;;;;;12.96;100.00;101166.53;4904365;29;20050;-83
2023/07/11 03:45:12;;;;;;;8.45;6.00;;;;;;;12.96;100.00;101158.59;4898907;29;20506;-83
2023/07/11 03:47:39;;;;;;;9.75;6.57;;;;;;;12.99;100.00;101157.63;4928570;29;20135;-83
2023/07/11 03:50:06;;;;;;;8.45;6.05;;;;;;;12.99;100.00;101167.38;4907321;29;20079;-83
2023/07/11 03:52:34;;;;;;;8.48;7.05;;;;;;;12.93;100.00;101169.25;4910827;29;20139;-83
2023/07/11 03:55:01;;;;;;;9.10;6.25;;;;;;;12.89;100.00;101172.88;4906997;29;20051;-82
2023/07/11 03:57:27;;;;;;;7.30;6.50;;;;;;;12.88;100.00;101167.63;4901239;29;20051;-82
2023/07/11 03:59:54;;;;;;;7.75;6.03;;;;;;;12.89;100.00;101172.88;4915032;29;20048;-82
2023/07/11 04:02:21;;;;;;;7.85;6.93;;;;;;;12.88;100.00;101168.50;4902195;29;20040;-82
2023/07/11 04:04:53;;;;;;;7.85;6.07;;;;;;;12.89;100.00;101172.88;4897562;29;20060;-82
2023/07/11 04:07:26;;;;;;;6.65;5.95;;;;;;;12.90;100.00;101166.66;4882394;29;20050;-83
2023/07/11 04:09:53;;;;;;;8.07;6.60;;;;;;;12.97;100.00;101170.06;4894644;29;20071;-83
2023/07/11 04:12:19;;;;;;;7.10;6.40;;;;;;;13.00;100.00;101169.97;4907892;29;20071;-82
2023/07/11 04:14:46;;;;;;;6.65;5.88;;;;;;;12.98;100.00;101173.59;4916466;29;21911;-83
2023/07/11 04:17:13;;;;;;;8.32;6.15;;;;;;;13.01;100.00;101162.91;4893703;29;20099;-82
2023/07/11 04:19:40;;;;;;;7.65;6.32;;;;;;;13.02;100.00;101164.63;4903147;29;20047;-83
2023/07/11 04:22:06;;;;;;;8.52;7.10;;;;;;;13.07;100.00;101168.94;4908526;29;20119;-83
2023/07/11 04:24:33;;;;;;;8.23;6.57;;;;;;;13.12;100.00;101156.47;4901655;29;20055;-84
2023/07/11 04:27:00;;;;;;;7.50;6.22;;;;;;;13.11;100.00;101167.09;4905906;29;20060;-83
2023/07/11 04:29:27;;;;;;;8.07;6.57;;;;;;;13.09;100.00;101163.59;4903378;29;20067;-83
2023/07/11 04:31:53;;;;;;;7.50;6.70;;;;;;;13.15;100.00;101161.69;4902936;29;20047;-83
2023/07/11 04:34:20;;;;;;;7.60;6.88;;;;;;;13.17;100.00;101166.94;4901327;29;20419;-83
2023/07/11 04:36:47;;;;;;;9.18;7.25;;;;;;;13.30;100.00;101170.25;4926924;29;20063;-83
2023/07/11 04:39:14;;;;;;;7.55;6.28;;;;;;;13.36;100.00;101170.06;4906685;29;20048;-82
2023/07/11 04:41:41;;;;;;;6.80;5.82;;;;;;;13.37;100.00;101159.44;4888222;29;20671;-83
2023/07/11 04:44:08;;;;;;;7.50;6.78;;;;;;;13.39;100.00;101164.72;4894150;29;20072;-83
2023/07/11 04:46:35;;;;;;;9.05;6.18;;;;;;;13.43;100.00;101153.97;4893739;29;20126;-83
2023/07/11 04:49:02;;;;;;;6.90;6.20;;;;;;;13.50;100.00;101155.56;4915355;29;20136;-82
2023/07/11 04:51:29;;;;;;;6.82;6.13;;;;;;;13.55;100.00;101157.25;4901848;29;20138;-83
2023/07/11 04:53:56;;;;;;;6.30;5.70;;;;;;;13.56;100.00;101153.69;4915690;29;20047;-82
2023/07/11 04:56:23;;;;;;;8.05;6.35;;;;;;;13.61;100.00;101143.78;4924515;29;20085;-83
2023/07/11 04:58:50;;;;;;;7.03;6.32;;;;;;;13.66;100.00;101153.41;4937640;29;20050;-82
2023/07/11 05:01:18;;;;;;;6.60;5.70;;;;;;;13.75;100.00;101152.28;4918962;29;20047;-84
2023/07/11 05:03:49;;;;;;;6.80;6.10;;;;;;;13.87;100.00;101153.75;4910961;29;20044;-83
2023/07/11 05:06:17;;;;;;;7.95;6.00;;;;;;;14.12;100.00;101141.56;4924023;29;20135;-82
2023/07/11 05:08:44;;;;;;;14.02;6.63;;;;;;;14.43;100.00;101149.56;4906555;29;20507;-81
2023/07/11 05:11:15;;;;;;;6.22;5.60;;;;;;;14.54;100.00;101143.94;4900892;29;20115;-82
2023/07/11 05:13:44;;;;;;;7.15;6.15;;;;;;;14.53;100.00;101139.56;4886521;29;20048;-81
2023/07/11 05:16:22;;;;;;;6.63;5.88;;;;;;;14.54;100.00;101146.59;4895218;29;20045;-81
2023/07/11 05:18:50;;;;;;;6.70;5.97;;;;;;;14.54;100.00;101147.47;4885385;29;20138;-82
2023/07/11 05:21:18;;;;;;;7.55;5.78;;;;;;;14.61;100.00;101150.84;4902685;29;20504;-81
2023/07/11 05:23:45;;;;;;;7.97;6.35;;;;;;;14.60;100.00;101144.66;4902420;29;20523;-81
2023/07/11 05:26:12;;;;;;;6.90;5.85;;;;;;;14.66;100.00;101153.38;4901277;29;20116;-82
2023/07/11 05:28:39;;;;;;;7.57;6.60;;;;;;;14.67;100.00;101141.81;4913180;29;20055;-81
2023/07/11 05:31:07;;;;;;;7.43;6.72;;;;;;;14.69;100.00;101139.97;4903282;29;20055;-82
2023/07/11 05:33:34;;;;;;;8.13;6.90;;;;;;;14.75;100.00;101137.13;4914380;29;20048;-81
2023/07/11 05:36:13;;;;;;;8.00;7.05;;;;;;;14.89;100.00;101140.25;4917741;29;20749;-83
2023/07/11 05:38:40;;;;;;;8.07;7.03;;;;;;;15.07;100.00;101138.81;4911272;29;20146;-82
2023/07/11 05:41:07;;;;;;;6.82;6.03;;;;;;;15.43;100.00;101134.97;4901350;29;20047;-82
2023/07/11 05:43:33;;;;;;;6.57;5.82;;;;;;;16.34;100.00;101122.06;4909521;29;20499;-82
2023/07/11 05:46:00;;;;;;;6.20;5.60;;;;;;;18.69;100.00;101127.44;4904473;29;20044;-83
2023/07/11 05:48:27;;;;;;;6.00;4.40;;;;;;;21.32;96.74;101122.69;4906589;29;20100;-81
2023/07/11 05:51:05;;;;;;;4.88;4.40;;;;;;;23.81;74.34;101120.47;4935705;29;20070;-81
2023/07/11 05:53:31;;;;;;;5.70;4.75;;;;;;;25.97;63.37;101119.97;4901682;29;20633;-82
2023/07/11 05:55:58;;;;;;;5.35;4.80;;;;;;;26.94;58.89;101122.16;4901427;29;20044;-84
2023/07/11 05:58:27;;;;;;;5.03;4.63;;;;;;;28.54;52.92;101123.09;4909843;29;20052;-83
2023/07/11 06:00:55;;;;;;;5.32;4.82;;;;;;;29.51;48.03;101120.66;4891882;29;20044;-82
2023/07/11 06:03:23;;;;;;;6.03;4.35;;;;;;;30.26;46.39;101115.28;4919412;29;20139;-82
2023/07/11 06:05:58;;;;;;;4.35;3.78;;;;;;;30.50;45.14;101117.50;4880358;29;20048;-81
2023/07/11 06:08:24;;;;;;;4.15;3.55;;;;;;;30.94;43.44;101115.06;4904455;29;20044;-81
2023/07/11 06:10:51;;;;;;;4.90;3.92;;;;;;;30.81;43.51;101109.94;4918954;29;20130;-84
2023/07/11 06:13:18;;;;;;;4.97;4.43;;;;;;;29.96;45.27;101118.22;4904883;29;20056;-82
2023/07/11 06:15:44;;;;;;;4.55;3.80;;;;;;;29.36;47.96;101112.91;4922061;29;20044;-83
2023/07/11 06:18:11;;;;;;;4.60;3.72;;;;;;;28.63;49.20;101113.25;4904238;29;20040;-82
2023/07/11 06:20:38;;;;;;;5.32;3.50;;;;;;;26.95;50.73;101112.19;4920890;29;20044;-80
2023/07/11 06:23:04;;;;;;;5.10;3.35;;;;;;;26.45;54.59;101111.72;4901212;29;20096;-81
2023/07/11 06:25:31;;;;;;;7.82;4.15;;;;;;;25.93;55.67;101107.69;4902127;29;20056;-83
2023/07/11 06:27:58;;;;;;;5.57;3.90;;;;;;;25.65;59.00;101116.19;4894591;29;20076;-83
2023/07/11 06:30:24;;;;;;;4.35;3.05;;;;;;;25.61;59.69;101112.81;4903861;29;20075;-82
2023/07/11 06:32:51;;;;;;;4.25;3.15;;;;;;;25.42;57.19;101115.22;4903563;29;20106;-83
2023/07/11 06:35:18;;;;;;;6.63;3.65;;;;;;;25.36;58.93;101108.41;4912511;29;20072;-82
2023/07/11 06:37:45;;;;;;;7.97;4.07;;;;;;;25.38;57.96;101108.28;4921597;29;20139;-83
2023/07/11 06:40:11;;;;;;;6.05;3.58;;;;;;;24.82;56.00;101111.50;4903101;29;20130;-84
2023/07/11 06:42:38;;;;;;;4.05;3.17;;;;;;;24.94;61.22;101109.72;4922703;29;20147;-82
2023/07/11 06:45:06;;;;;;;3.78;3.03;;;;;;;25.14;60.15;101101.06;4907110;29;20065;-83
2023/07/11 06:47:33;;;;;;;3.50;3.15;;;;;;;25.18;57.20;101102.53;4901726;29;20515;-80
2023/07/11 06:50:00;;;;;;;4.63;3.08;;;;;;;25.27;59.05;101107.25;4920121;29;20080;-83
2023/07/11 06:52:28;;;;;;;3.53;2.90;;;;;;;25.20;58.10;101105.13;4916571;29;20047;-82
2023/07/11 06:54:55;;;;;;;4.32;3.10;;;;;;;25.32;57.57;101106.06;4914135;29;20051;-81
2023/07/11 06:57:22;;;;;;;3.88;3.25;;;;;;;24.99;54.74;101097.63;4902498;29;20048;-83
2023/07/11 06:59:48;;;;;;;4.07;3.10;;;;;;;25.24;56.13;101102.09;4900673;29;20096;-81
2023/07/11 07:02:15;;;;;;;5.13;3.63;;;;;;;25.19;56.19;101096.16;4891293;29;20072;-82
2023/07/11 07:04:42;;;;;;;4.50;2.90;;;;;;;25.27;56.82;101096.44;4919571;29;20040;-83
2023/07/11 07:07:09;;;;;;;8.18;3.17;;;;;;;25.34;54.37;101090.56;4897508;29;20080;-80
2023/07/11 07:09:36;;;;;;;3.80;2.50;;;;;;;25.43;55.22;101092.59;4902906;29;20079;-82
2023/07/11 07:12:03;;;;;;;4.40;2.85;;;;;;;25.52;53.17;101098.16;4915694;29;20504;-82
2023/07/11 07:14:30;;;;;;;3.95;2.83;;;;;;;25.63;54.19;101091.91;4884577;29;20527;-83
2023/07/11 07:16:57;;;;;;;4.07;2.88;;;;;;;25.54;50.43;101090.78;4896358;29;20043;-85
2023/07/11 07:19:23;;;;;;;3.75;2.92;;;;;;;25.69;50.40;101091.44;4904639;29;20055;-82
2023/07/11 07:21:50;;;;;;;4.05;2.50;;;;;;;25.83;50.81;101092.28;4894745;29;20134;-82
2023/07/11 07:24:17;;;;;;;5.00;2.53;;;;;;;25.95;50.55;101077.78;4908481;29;20040;-83
2023/07/11 07:26:43;;;;;;;3.42;2.20;;;;;;;26.06;49.37;101092.22;4906275;29;20115;-82
2023/07/11 07:29:10;;;;;;;3.08;2.42;;;;;;;25.97;47.91;101083.91;4916475;29;20086;-83
2023/07/11 07:31:37;;;;;;;3.13;2.00;;;;;;;25.89;47.58;101087.22;4900158;29;20165;-84
2023/07/11 07:34:04;;;;;;;4.72;2.60;;;;;;;26.00;46.95;101091.81;4918688;29;20543;-82
2023/07/11 07:36:31;;;;;;;3.10;2.05;;;;;;;25.95;46.97;101083.19;4903072;29;20100;-83
2023/07/11 07:38:57;;;;;;;3.95;2.00;;;;;;;26.15;44.61;101081.59;4907524;29;20040;-79
2023/07/11 07:41:24;;;;;;;3.78;2.10;;;;;;;26.28;45.04;101085.06;4907190;29;20447;-81
2023/07/11 07:43:51;;;;;;;1.80;1.50;;;;;;;26.34;42.18;101080.03;4901202;29;20121;-82
2023/07/11 07:46:19;;;;;;;2.22;1.80;;;;;;;26.43;42.53;101080.31;4916319;29;20040;-82
2023/07/11 07:48:46;;;;;;;2.70;1.92;;;;;;;26.55;45.08;101082.03;4923531;29;20043;-81
2023/07/11 07:51:16;;;;;;;2.28;1.88;;;;;;;26.63;44.92;101079.56;4905935;29;20048;-84
2023/07/11 07:53:43;;;;;;;2.03;1.63;;;;;;;26.58;42.44;101069.09;4916423;29;20107;-83
2023/07/11 07:56:19;;;;;;;2.80;1.80;;;;;;;26.72;43.91;101076.09;4882900;29;20064;-81
2023/07/11 07:58:46;;;;;;;3.05;1.88;;;;;;;26.92;42.19;101059.06;4899883;29;20052;-80
2023/07/11 08:01:15;;;;;;;2.70;1.85;;;;;;;26.97;40.04;101058.66;4928319;29;20095;-81
2023/07/11 08:03:42;;;;;;;2.92;1.90;;;;;;;27.17;42.23;101057.91;4911186;29;20707;-82
2023/07/11 08:06:10;;;;;;;3.65;2.10;;;;;;;27.29;42.68;101060.56;4901465;29;20138;-82
2023/07/11 08:08:39;;;;;;;3.35;1.92;;;;;;;27.18;43.94;101053.34;4911491;29;20047;-83
2023/07/11 08:11:07;;;;;;;3.08;1.70;;;;;;;27.26;42.12;101042.72;4910602;29;20064;-81
2023/07/11 08:13:35;;;;;;;2.85;1.80;;;;;;;27.45;41.94;101044.72;4918123;29;20135;-81
2023/07/11 08:16:22;;;;;;;3.90;1.98;;;;;;;27.65;43.76;101051.16;4926654;29;20375;-80
2023/07/11 08:18:59;;;;;;;4.30;2.20;;;;;;;27.64;42.16;101044.00;4900738;29;20087;-83
2023/07/11 08:21:25;;;;;;;2.55;1.80;;;;;;;27.69;41.49;101039.94;4919045;29;20044;-81
2023/07/11 08:23:52;;;;;;;2.67;2.08;;;;;;;27.70;41.37;101044.38;4905056;29;20200;-81
2023/07/11 08:26:21;;;;;;;3.30;1.70;;;;;;;27.52;40.87;101045.06;4900959;29;20056;-81
2023/07/11 08:28:49;;;;;;;3.28;2.38;;;;;;;27.77;41.79;101040.13;4882531;29;20072;-80
2023/07/11 08:31:16;;;;;;;4.43;1.90;;;;;;;27.95;38.59;101026.81;4910346;29;20107;-80
2023/07/11 08:33:43;;;;;;;2.30;1.65;;;;;;;27.73;38.40;101032.38;4900861;29;20579;-80
2023/07/11 08:36:10;;;;;;;3.20;1.88;;;;;;;27.81;38.84;101029.00;4910049;29;20059;-80
2023/07/11 08:38:37;;;;;;;4.53;2.10;;;;;;;27.83;38.83;101030.59;4905405;29;20111;-80
2023/07/11 08:41:27;;;;;;;2.20;1.85;;;;;;;27.95;40.31;101029.53;4909241;29;20048;-82
2023/07/11 08:43:58;;;;;;;3.85;2.00;;;;;;;27.83;36.39;101027.00;4910167;29;20044;-81
2023/07/11 08:46:26;;;;;;;5.22;2.22;;;;;;;27.80;38.70;101022.72;4899606;29;20047;-83
2023/07/11 08:48:59;;;;;;;2.53;1.92;;;;;;;27.96;39.37;101020.38;4896962;29;20055;-81
2023/07/11 08:51:35;;;;;;;2.58;1.88;;;;;;;28.13;39.66;101023.47;4908651;29;20563;-81
2023/07/11 08:54:29;;;;;;;3.60;2.05;;;;;;;28.05;38.14;101018.69;4902368;29;20051;-80
2023/07/11 08:56:59;;;;;;;4.00;1.95;;;;;;;27.99;39.26;101017.38;4930149;29;20039;-82
2023/07/11 08:59:39;;;;;;;4.20;2.00;;;;;;;28.20;39.35;101011.06;4916151;29;20048;-80
2023/07/11 09:02:09;;;;;;;3.50;2.10;;;;;;;28.28;38.17;101005.81;4894740;29;20048;-81
2023/07/11 09:04:46;;;;;;;2.85;2.35;;;;;;;28.37;38.01;101004.16;4903366;29;20508;-81
2023/07/11 09:07:38;;;;;;;2.40;2.00;;;;;;;27.75;38.34;101004.13;4887058;29;20103;-81
2023/07/11 09:10:21;;;;;;;5.30;2.00;;;;;;;27.98;37.93;100993.06;4904948;29;20068;-83
2023/07/11 09:13:19;;;;;;;3.35;2.00;;;;;;;28.21;38.99;100991.91;4893828;29;20480;-82
2023/07/11 09:15:51;;;;;;;3.88;1.90;;;;;;;28.26;38.31;100995.06;4920781;29;20071;-82
2023/07/11 09:18:37;;;;;;;2.45;1.85;;;;;;;28.44;37.62;100995.31;4914652;29;20045;-83
2023/07/11 09:21:10;;;;;;;3.13;2.15;;;;;;;28.65;38.84;100986.19;4909512;29;20497;-83
2023/07/11 09:23:53;;;;;;;4.03;2.35;;;;;;;28.52;35.53;100986.47;4917040;29;20048;-82
2023/07/11 09:26:27;;;;;;;10.80;2.65;;;;;;;28.67;37.01;100985.06;4885451;29;20087;-83
2023/07/11 09:29:03;;;;;;;4.28;2.00;;;;;;;28.68;36.67;100981.34;4916274;29;20557;-83
2023/07/11 09:31:38;;;;;;;2.33;1.60;;;;;;;29.01;35.62;100980.13;4917636;29;20455;-81
2023/07/11 09:34:15;;;;;;;3.90;2.25;;;;;;;29.18;34.92;100981.28;4911572;29;20496;-82
2023/07/11 09:36:42;;;;;;;2.33;1.70;;;;;;;29.20;34.37;100978.41;4887355;29;20609;-82
2023/07/11 09:39:12;;;;;;;3.10;1.92;;;;;;;29.44;35.32;100973.38;4913502;29;20474;-83
2023/07/11 09:41:47;;;;;;;3.35;2.03;;;;;;;29.22;34.69;100976.38;4924886;29;20078;-82
2023/07/11 09:44:16;;;;;;;3.10;2.03;;;;;;;29.36;33.29;100965.91;4919984;29;20072;-83
2023/07/11 09:46:43;;;;;;;2.20;2.00;;;;;;;29.35;34.24;100969.66;4917970;29;20083;-81
2023/07/11 09:49:18;;;;;;;2.33;1.60;;;;;;;29.35;35.75;100958.75;4907523;29;20052;-83
2023/07/11 09:51:48;;;;;;;3.38;2.03;;;;;;;29.47;34.00;100958.59;4904533;29;20044;-86
2023/07/11 09:54:22;;;;;;;2.10;1.70;;;;;;;29.42;32.31;100954.44;4897966;29;20135;-82
2023/07/11 09:56:50;;;;;;;3.45;1.88;;;;;;;29.22;29.17;100949.16;4906502;29;20042;-83
2023/07/11 09:59:18;;;;;;;2.05;1.55;;;;;;;29.53;30.91;100956.19;4899666;29;20147;-80
2023/07/11 10:01:51;;;;;;;2.67;1.90;;;;;;;29.81;30.91;100943.47;4904307;29;20049;-82
2023/07/11 10:04:22;;;;;;;3.25;1.92;;;;;;;29.69;32.16;100945.53;4907771;29;20040;-81
2023/07/11 10:06:57;;;;;;;2.65;2.30;;;;;;;29.44;32.19;100941.56;4930350;29;20039;-81
2023/07/11 10:09:26;;;;;;;3.70;1.98;;;;;;;29.72;33.98;100938.91;4896965;29;20040;-80
2023/07/11 10:12:05;;;;;;;3.00;2.17;;;;;;;29.90;33.57;100937.13;4914777;29;20563;-82
2023/07/11 10:14:36;;;;;;;2.83;2.22;;;;;;;29.49;34.71;100937.50;4902509;29;20710;-80
2023/07/11 10:17:16;;;;;;;2.50;2.00;;;;;;;29.18;34.54;100932.28;4912348;29;20048;-81
2023/07/11 10:19:43;;;;;;;3.97;1.85;;;;;;;29.14;33.31;100920.81;4908323;29;20048;-80
2023/07/11 10:22:19;;;;;;;2.90;2.13;;;;;;;29.40;34.22;100923.78;4917163;29;20055;-82
2023/07/11 10:24:47;;;;;;;3.33;2.25;;;;;;;29.20;34.59;100918.53;4906664;29;20050;-85
2023/07/11 10:27:22;;;;;;;2.65;2.00;;;;;;;29.47;35.37;100925.91;4890753;29;20047;-82
2023/07/11 10:29:52;;;;;;;4.47;2.33;;;;;;;29.55;35.26;100917.91;4909306;29;20064;-82
2023/07/11 10:32:39;;;;;;;2.72;2.10;;;;;;;29.64;35.59;100919.75;4914587;29;20092;-81
2023/07/11 10:35:11;;;;;;;2.80;2.25;;;;;;;29.60;34.08;100913.75;4901792;29;20063;-82
2023/07/11 10:37:42;;;;;;;2.80;1.98;;;;;;;29.75;33.48;100910.53;4907138;29;20041;-82
2023/07/11 10:40:16;;;;;;;3.92;2.47;;;;;;;29.93;34.15;100909.59;4895690;29;20072;-81
2023/07/11 10:43:06;;;;;;;4.40;2.33;;;;;;;29.40;33.79;100915.63;4914673;29;20060;-80
2023/07/11 10:45:42;;;;;;;2.53;1.95;;;;;;;29.65;34.05;100905.97;4903781;29;20420;-81
2023/07/11 10:48:15;;;;;;;2.40;2.10;;;;;;;29.83;33.84;100907.91;4918292;29;20044;-82
2023/07/11 10:50:48;;;;;;;2.22;1.83;;;;;;;29.83;32.63;100888.84;4911865;29;20047;-83
2023/07/11 10:53:20;;;;;;;3.95;2.40;;;;;;;29.88;33.43;100900.16;4918546;29;20044;-83
2023/07/11 10:55:58;;;;;;;3.10;2.20;;;;;;;30.13;33.86;100896.75;4907700;29;20412;-82
2023/07/11 10:58:24;;;;;;;2.80;2.20;;;;;;;30.33;34.15;100883.84;4903157;29;20044;-83
2023/07/11 11:01:28;;;;;;;3.53;2.30;;;;;;;30.39;32.88;100876.94;4894807;29;20078;-80
2023/07/11 11:04:11;;;;;;;2.70;2.50;;;;;;;30.16;33.81;100871.06;4904191;29;20048;-82
2023/07/11 11:06:57;;;;;;;3.10;2.10;;;;;;;30.27;34.07;100879.91;4913405;29;20063;-82
2023/07/11 11:09:35;;;;;;;4.00;2.38;;;;;;;30.22;33.28;100874.03;4917395;29;20075;-83
2023/07/11 11:12:24;;;;;;;3.45;2.17;;;;;;;30.27;33.97;100879.03;4918437;29;20084;-79
2023/07/11 11:14:57;;;;;;;2.97;2.22;;;;;;;30.26;33.89;100867.25;4905586;29;20104;-80
2023/07/11 11:17:37;;;;;;;2.80;2.00;;;;;;;29.91;32.44;100862.56;4898642;29;20562;-82
2023/07/11 11:20:23;;;;;;;3.03;2.05;;;;;;;29.93;31.50;100844.22;4894702;29;20055;-81
2023/07/11 11:22:59;;;;;;;2.63;2.20;;;;;;;29.68;33.19;100834.91;4897384;29;20052;-80
2023/07/11 11:25:34;;;;;;;3.70;1.95;;;;;;;30.04;32.60;100831.41;4918700;29;20163;-81
2023/07/11 11:28:15;;;;;;;4.25;2.10;;;;;;;30.22;34.27;100830.44;4899873;29;20099;-81
2023/07/11 11:30:57;;;;;;;2.17;1.88;;;;;;;30.36;33.13;100839.09;4900529;29;20096;-82
2023/07/11 11:33:47;;;;;;;3.38;2.10;;;;;;;30.39;33.48;100841.50;4889566;29;20043;-80